sensor_id;sensor_type;location;lat;lon;timestamp;temperature;humidity
18384;DHT22;9318;48.644;9.456;2024-02-14T00:00:37;2.60;99.90
18384;DHT22;9318;48.644;9.456;2024-02-14T00:03:06;2.50;99.90
18384;DHT22;9318;48.644;9.456;2024-02-14T00:05:33;2.50;99.90
18384;DHT22;9318;48.644;9.456;2024-02-14T00:08:00;2.50;99.90
18384;DHT22;9318;48.644;9.456;2024-02-14T00:10:26;2.50;99.90
18384;DHT22;9318;48.644;9.456;2024-02-14T00:12:53;2.50;99.90
18384;DHT22;9318;48.644;9.456;2024-02-14T00:15:21;2.50;99.90
18384;DHT22;9318;48.644;9.456;2024-02-14T00:17:49;2.50;99.90
18384;DHT22;9318;48.644;9.456;2024-02-14T00:20:16;2.50;99.90
18384;DHT22;9318;48.644;9.456;2024-02-14T00:22:42;2.50;99.90
18384;DHT22;9318;48.644;9.456;2024-02-14T00:25:09;2.50;99.90
18384;DHT22;9318;48.644;9.456;2024-02-14T00:27:36;2.50;99.90
18384;DHT22;9318;48.644;9.456;2024-02-14T00:30:04;2.60;99.90
18384;DHT22;9318;48.644;9.456;2024-02-14T00:32:31;2.60;99.90
18384;DHT22;9318;48.644;9.456;2024-02-14T00:35:00;2.60;99.90
18384;DHT22;9318;48.644;9.456;2024-02-14T00:37:27;2.70;99.90
18384;DHT22;9318;48.644;9.456;2024-02-14T00:39:54;2.70;99.90
18384;DHT22;9318;48.644;9.456;2024-02-14T00:42:23;2.70;99.90
18384;DHT22;9318;48.644;9.456;2024-02-14T00:44:50;2.80;99.90
18384;DHT22;9318;48.644;9.456;2024-02-14T00:47:17;2.80;99.90
18384;DHT22;9318;48.644;9.456;2024-02-14T00:49:44;2.80;99.90
18384;DHT22;9318;48.644;9.456;2024-02-14T00:52:13;2.80;99.90
18384;DHT22;9318;48.644;9.456;2024-02-14T00:54:39;2.70;99.90
18384;DHT22;9318;48.644;9.456;2024-02-14T00:57:06;2.70;99.90
18384;DHT22;9318;48.644;9.456;2024-02-14T00:59:33;2.70;99.90
18384;DHT22;9318;48.644;9.456;2024-02-14T01:02:00;2.80;99.90
18384;DHT22;9318;48.644;9.456;2024-02-14T01:04:27;2.80;99.90
18384;DHT22;9318;48.644;9.456;2024-02-14T01:06:53;2.80;99.90
18384;DHT22;9318;48.644;9.456;2024-02-14T01:09:21;2.80;99.90
18384;DHT22;9318;48.644;9.456;2024-02-14T01:11:48;2.90;99.90
18384;DHT22;9318;48.644;9.456;2024-02-14T01:14:16;2.90;99.90
18384;DHT22;9318;48.644;9.456;2024-02-14T01:16:43;2.90;99.90
18384;DHT22;9318;48.644;9.456;2024-02-14T01:19:10;2.90;99.90
18384;DHT22;9318;48.644;9.456;2024-02-14T01:21:36;2.90;99.90
18384;DHT22;9318;48.644;9.456;2024-02-14T01:24:04;2.90;99.90
18384;DHT22;9318;48.644;9.456;2024-02-14T01:26:34;3.00;99.90
18384;DHT22;9318;48.644;9.456;2024-02-14T01:29:01;3.00;99.90
18384;DHT22;9318;48.644;9.456;2024-02-14T01:31:28;3.00;99.90
18384;DHT22;9318;48.644;9.456;2024-02-14T01:33:56;3.00;99.90
18384;DHT22;9318;48.644;9.456;2024-02-14T01:36:22;3.00;99.90
18384;DHT22;9318;48.644;9.456;2024-02-14T01:38:49;3.10;99.90
18384;DHT22;9318;48.644;9.456;2024-02-14T01:41:16;3.10;99.90
18384;DHT22;9318;48.644;9.456;2024-02-14T01:43:44;3.20;99.90
18384;DHT22;9318;48.644;9.456;2024-02-14T01:46:11;3.20;99.90
18384;DHT22;9318;48.644;9.456;2024-02-14T01:48:38;3.30;99.90
18384;DHT22;9318;48.644;9.456;2024-02-14T01:51:08;3.30;99.90
18384;DHT22;9318;48.644;9.456;2024-02-14T01:53:36;3.40;99.90
18384;DHT22;9318;48.644;9.456;2024-02-14T01:56:04;3.40;99.90
18384;DHT22;9318;48.644;9.456;2024-02-14T01:58:32;3.50;99.90
18384;DHT22;9318;48.644;9.456;2024-02-14T02:01:01;3.40;99.90
18384;DHT22;9318;48.644;9.456;2024-02-14T02:03:29;3.50;99.90
18384;DHT22;9318;48.644;9.456;2024-02-14T02:05:58;3.50;99.90
18384;DHT22;9318;48.644;9.456;2024-02-14T02:08:25;3.40;99.90
18384;DHT22;9318;48.644;9.456;2024-02-14T02:10:52;3.40;99.90
18384;DHT22;9318;48.644;9.456;2024-02-14T02:13:19;3.40;99.90
18384;DHT22;9318;48.644;9.456;2024-02-14T02:15:46;3.40;99.90
18384;DHT22;9318;48.644;9.456;2024-02-14T02:18:14;3.40;99.90
18384;DHT22;9318;48.644;9.456;2024-02-14T02:20:42;3.40;99.90
18384;DHT22;9318;48.644;9.456;2024-02-14T02:23:11;3.40;99.90
18384;DHT22;9318;48.644;9.456;2024-02-14T02:25:40;3.50;99.90
18384;DHT22;9318;48.644;9.456;2024-02-14T02:28:07;3.50;99.90
18384;DHT22;9318;48.644;9.456;2024-02-14T02:30:34;3.50;99.90
18384;DHT22;9318;48.644;9.456;2024-02-14T02:33:02;3.50;99.90
18384;DHT22;9318;48.644;9.456;2024-02-14T02:35:29;3.50;99.90
18384;DHT22;9318;48.644;9.456;2024-02-14T02:37:56;3.50;99.90
18384;DHT22;9318;48.644;9.456;2024-02-14T02:40:24;3.50;99.90
18384;DHT22;9318;48.644;9.456;2024-02-14T02:42:52;3.60;99.90
18384;DHT22;9318;48.644;9.456;2024-02-14T02:45:19;3.60;99.90
18384;DHT22;9318;48.644;9.456;2024-02-14T02:47:46;3.60;99.90
18384;DHT22;9318;48.644;9.456;2024-02-14T02:50:13;3.70;99.90
18384;DHT22;9318;48.644;9.456;2024-02-14T02:52:40;3.70;99.90
18384;DHT22;9318;48.644;9.456;2024-02-14T02:55:08;3.70;99.90
18384;DHT22;9318;48.644;9.456;2024-02-14T02:57:37;3.70;99.90
18384;DHT22;9318;48.644;9.456;2024-02-14T03:00:06;3.60;99.90
18384;DHT22;9318;48.644;9.456;2024-02-14T03:02:34;3.70;99.90
18384;DHT22;9318;48.644;9.456;2024-02-14T03:05:04;3.70;99.90
18384;DHT22;9318;48.644;9.456;2024-02-14T03:07:32;3.80;99.90
18384;DHT22;9318;48.644;9.456;2024-02-14T03:09:59;3.70;99.90
18384;DHT22;9318;48.644;9.456;2024-02-14T03:12:26;3.70;99.90
18384;DHT22;9318;48.644;9.456;2024-02-14T03:14:57;3.70;99.90
18384;DHT22;9318;48.644;9.456;2024-02-14T03:17:24;3.70;99.90
18384;DHT22;9318;48.644;9.456;2024-02-14T03:19:51;3.70;99.90
18384;DHT22;9318;48.644;9.456;2024-02-14T03:22:18;3.70;99.90
18384;DHT22;9318;48.644;9.456;2024-02-14T03:24:45;3.70;99.90
18384;DHT22;9318;48.644;9.456;2024-02-14T03:27:12;3.60;99.90
18384;DHT22;9318;48.644;9.456;2024-02-14T03:29:39;3.70;99.90
18384;DHT22;9318;48.644;9.456;2024-02-14T03:32:07;3.60;99.90
18384;DHT22;9318;48.644;9.456;2024-02-14T03:34:34;3.60;99.90
18384;DHT22;9318;48.644;9.456;2024-02-14T03:37:01;3.60;99.90
18384;DHT22;9318;48.644;9.456;2024-02-14T03:39:28;3.60;99.90
18384;DHT22;9318;48.644;9.456;2024-02-14T03:41:56;3.50;99.90
18384;DHT22;9318;48.644;9.456;2024-02-14T03:44:23;3.50;99.90
18384;DHT22;9318;48.644;9.456;2024-02-14T03:46:49;3.40;99.90
18384;DHT22;9318;48.644;9.456;2024-02-14T03:49:17;3.40;99.90
18384;DHT22;9318;48.644;9.456;2024-02-14T03:51:45;3.40;99.90
18384;DHT22;9318;48.644;9.456;2024-02-14T03:54:12;3.40;99.90
18384;DHT22;9318;48.644;9.456;2024-02-14T03:56:38;3.40;99.90
18384;DHT22;9318;48.644;9.456;2024-02-14T03:59:06;3.40;99.90
18384;DHT22;9318;48.644;9.456;2024-02-14T04:01:33;3.40;99.90
18384;DHT22;9318;48.644;9.456;2024-02-14T04:04:00;3.40;99.90
18384;DHT22;9318;48.644;9.456;2024-02-14T04:06:28;3.40;99.90
18384;DHT22;9318;48.644;9.456;2024-02-14T04:08:57;3.50;99.90
18384;DHT22;9318;48.644;9.456;2024-02-14T04:11:24;3.50;99.90
18384;DHT22;9318;48.644;9.456;2024-02-14T04:13:51;3.50;99.90
18384;DHT22;9318;48.644;9.456;2024-02-14T04:16:19;3.60;99.90
18384;DHT22;9318;48.644;9.456;2024-02-14T04:18:46;3.70;99.90
18384;DHT22;9318;48.644;9.456;2024-02-14T04:21:13;3.70;99.90
18384;DHT22;9318;48.644;9.456;2024-02-14T04:23:41;3.70;99.90
18384;DHT22;9318;48.644;9.456;2024-02-14T04:26:08;3.80;99.90
18384;DHT22;9318;48.644;9.456;2024-02-14T04:28:35;3.90;99.90
18384;DHT22;9318;48.644;9.456;2024-02-14T04:31:02;3.90;99.90
18384;DHT22;9318;48.644;9.456;2024-02-14T04:33:28;3.90;99.90
18384;DHT22;9318;48.644;9.456;2024-02-14T04:35:56;4.00;99.90
18384;DHT22;9318;48.644;9.456;2024-02-14T04:38:22;4.00;99.90
18384;DHT22;9318;48.644;9.456;2024-02-14T04:40:50;4.00;99.90
18384;DHT22;9318;48.644;9.456;2024-02-14T04:43:17;4.00;99.90
18384;DHT22;9318;48.644;9.456;2024-02-14T04:45:45;4.00;99.90
18384;DHT22;9318;48.644;9.456;2024-02-14T04:48:12;4.10;99.90
18384;DHT22;9318;48.644;9.456;2024-02-14T04:50:39;4.10;99.90
18384;DHT22;9318;48.644;9.456;2024-02-14T04:53:06;4.10;99.90
18384;DHT22;9318;48.644;9.456;2024-02-14T04:55:33;4.20;99.90
18384;DHT22;9318;48.644;9.456;2024-02-14T04:58:01;4.20;99.90
18384;DHT22;9318;48.644;9.456;2024-02-14T05:00:28;4.20;99.90
18384;DHT22;9318;48.644;9.456;2024-02-14T05:02:55;4.30;99.90
18384;DHT22;9318;48.644;9.456;2024-02-14T05:05:22;4.40;99.90
18384;DHT22;9318;48.644;9.456;2024-02-14T05:07:49;4.40;99.90
18384;DHT22;9318;48.644;9.456;2024-02-14T05:10:16;4.40;99.90
18384;DHT22;9318;48.644;9.456;2024-02-14T05:12:43;4.40;99.90
18384;DHT22;9318;48.644;9.456;2024-02-14T05:15:12;4.30;99.90
18384;DHT22;9318;48.644;9.456;2024-02-14T05:17:41;4.30;99.90
18384;DHT22;9318;48.644;9.456;2024-02-14T05:20:09;4.30;99.90
18384;DHT22;9318;48.644;9.456;2024-02-14T05:22:36;4.40;99.90
18384;DHT22;9318;48.644;9.456;2024-02-14T05:25:04;4.40;99.90
18384;DHT22;9318;48.644;9.456;2024-02-14T05:27:33;4.40;99.90
18384;DHT22;9318;48.644;9.456;2024-02-14T05:30:00;4.40;99.90
18384;DHT22;9318;48.644;9.456;2024-02-14T05:32:28;4.50;99.90
18384;DHT22;9318;48.644;9.456;2024-02-14T05:34:54;4.50;99.90
18384;DHT22;9318;48.644;9.456;2024-02-14T05:37:21;4.50;99.90
18384;DHT22;9318;48.644;9.456;2024-02-14T05:39:48;4.50;99.90
18384;DHT22;9318;48.644;9.456;2024-02-14T05:42:15;4.60;99.90
18384;DHT22;9318;48.644;9.456;2024-02-14T05:44:42;4.60;99.90
18384;DHT22;9318;48.644;9.456;2024-02-14T05:47:09;4.70;99.90
18384;DHT22;9318;48.644;9.456;2024-02-14T05:49:38;4.70;99.90
18384;DHT22;9318;48.644;9.456;2024-02-14T05:52:05;4.70;99.90
18384;DHT22;9318;48.644;9.456;2024-02-14T05:54:32;4.80;99.90
18384;DHT22;9318;48.644;9.456;2024-02-14T05:56:59;4.90;99.90
18384;DHT22;9318;48.644;9.456;2024-02-14T05:59:26;4.90;99.90
18384;DHT22;9318;48.644;9.456;2024-02-14T06:01:53;5.00;99.90
18384;DHT22;9318;48.644;9.456;2024-02-14T06:04:20;5.00;99.90
18384;DHT22;9318;48.644;9.456;2024-02-14T06:06:48;5.10;99.90
18384;DHT22;9318;48.644;9.456;2024-02-14T06:09:15;5.10;99.90
18384;DHT22;9318;48.644;9.456;2024-02-14T06:11:42;5.10;99.90
18384;DHT22;9318;48.644;9.456;2024-02-14T06:14:09;5.10;99.90
18384;DHT22;9318;48.644;9.456;2024-02-14T06:16:36;5.10;99.90
18384;DHT22;9318;48.644;9.456;2024-02-14T06:19:04;5.20;99.90
18384;DHT22;9318;48.644;9.456;2024-02-14T06:21:31;5.20;99.90
18384;DHT22;9318;48.644;9.456;2024-02-14T06:24:00;5.20;99.90
18384;DHT22;9318;48.644;9.456;2024-02-14T06:26:30;5.10;99.90
18384;DHT22;9318;48.644;9.456;2024-02-14T06:28:57;5.10;99.90
18384;DHT22;9318;48.644;9.456;2024-02-14T06:31:23;5.10;99.90
18384;DHT22;9318;48.644;9.456;2024-02-14T06:33:50;5.10;99.90
18384;DHT22;9318;48.644;9.456;2024-02-14T06:36:17;5.10;99.90
18384;DHT22;9318;48.644;9.456;2024-02-14T06:38:44;5.00;99.90
18384;DHT22;9318;48.644;9.456;2024-02-14T06:41:13;5.00;99.90
18384;DHT22;9318;48.644;9.456;2024-02-14T06:43:39;5.00;99.90
18384;DHT22;9318;48.644;9.456;2024-02-14T06:46:06;5.00;99.90
18384;DHT22;9318;48.644;9.456;2024-02-14T06:48:33;4.90;99.90
18384;DHT22;9318;48.644;9.456;2024-02-14T06:51:00;4.90;99.90
18384;DHT22;9318;48.644;9.456;2024-02-14T06:53:27;4.90;99.90
18384;DHT22;9318;48.644;9.456;2024-02-14T06:55:54;4.90;99.90
18384;DHT22;9318;48.644;9.456;2024-02-14T06:58:22;5.00;99.90
18384;DHT22;9318;48.644;9.456;2024-02-14T07:00:48;5.00;99.90
18384;DHT22;9318;48.644;9.456;2024-02-14T07:03:16;5.00;99.90
18384;DHT22;9318;48.644;9.456;2024-02-14T07:05:43;5.00;99.90
18384;DHT22;9318;48.644;9.456;2024-02-14T07:08:09;5.00;99.90
18384;DHT22;9318;48.644;9.456;2024-02-14T07:10:36;4.90;99.90
18384;DHT22;9318;48.644;9.456;2024-02-14T07:13:03;4.90;99.90
18384;DHT22;9318;48.644;9.456;2024-02-14T07:15:31;5.00;99.90
18384;DHT22;9318;48.644;9.456;2024-02-14T07:17:58;5.00;99.90
18384;DHT22;9318;48.644;9.456;2024-02-14T07:20:25;5.00;99.90
18384;DHT22;9318;48.644;9.456;2024-02-14T07:22:53;5.00;99.90
18384;DHT22;9318;48.644;9.456;2024-02-14T07:25:22;5.00;99.90
18384;DHT22;9318;48.644;9.456;2024-02-14T07:27:49;5.00;99.90
18384;DHT22;9318;48.644;9.456;2024-02-14T07:30:16;5.00;99.90
18384;DHT22;9318;48.644;9.456;2024-02-14T07:32:45;5.00;99.90
18384;DHT22;9318;48.644;9.456;2024-02-14T07:35:12;5.10;99.90
18384;DHT22;9318;48.644;9.456;2024-02-14T07:37:40;5.10;99.90
18384;DHT22;9318;48.644;9.456;2024-02-14T07:40:09;5.20;99.90
18384;DHT22;9318;48.644;9.456;2024-02-14T07:42:36;5.30;99.90
18384;DHT22;9318;48.644;9.456;2024-02-14T07:45:04;5.40;99.90
18384;DHT22;9318;48.644;9.456;2024-02-14T07:47:31;5.40;99.90
18384;DHT22;9318;48.644;9.456;2024-02-14T07:50:00;5.50;99.90
18384;DHT22;9318;48.644;9.456;2024-02-14T07:52:28;5.50;99.90
18384;DHT22;9318;48.644;9.456;2024-02-14T07:54:55;5.50;99.90
18384;DHT22;9318;48.644;9.456;2024-02-14T07:57:23;5.60;99.90
18384;DHT22;9318;48.644;9.456;2024-02-14T07:59:50;5.60;99.90
18384;DHT22;9318;48.644;9.456;2024-02-14T08:02:17;5.70;99.90
18384;DHT22;9318;48.644;9.456;2024-02-14T08:04:44;5.60;99.90
18384;DHT22;9318;48.644;9.456;2024-02-14T08:07:12;5.60;99.90
18384;DHT22;9318;48.644;9.456;2024-02-14T08:09:39;5.60;99.90
18384;DHT22;9318;48.644;9.456;2024-02-14T08:12:06;5.70;99.90
18384;DHT22;9318;48.644;9.456;2024-02-14T08:14:33;5.70;99.90
18384;DHT22;9318;48.644;9.456;2024-02-14T08:17:00;5.80;99.90
18384;DHT22;9318;48.644;9.456;2024-02-14T08:19:27;5.80;99.90
18384;DHT22;9318;48.644;9.456;2024-02-14T08:21:53;5.80;99.90
18384;DHT22;9318;48.644;9.456;2024-02-14T08:24:25;5.90;99.90
18384;DHT22;9318;48.644;9.456;2024-02-14T08:26:52;5.90;99.90
18384;DHT22;9318;48.644;9.456;2024-02-14T08:29:19;6.00;99.90
18384;DHT22;9318;48.644;9.456;2024-02-14T08:31:46;6.00;99.90
18384;DHT22;9318;48.644;9.456;2024-02-14T08:34:14;6.10;99.90
18384;DHT22;9318;48.644;9.456;2024-02-14T08:36:40;6.10;99.90
18384;DHT22;9318;48.644;9.456;2024-02-14T08:39:07;6.20;99.90
18384;DHT22;9318;48.644;9.456;2024-02-14T08:41:36;6.30;99.90
18384;DHT22;9318;48.644;9.456;2024-02-14T08:44:04;6.40;99.90
18384;DHT22;9318;48.644;9.456;2024-02-14T08:46:31;6.40;99.90
18384;DHT22;9318;48.644;9.456;2024-02-14T08:48:59;6.40;99.90
18384;DHT22;9318;48.644;9.456;2024-02-14T08:51:27;6.50;99.90
18384;DHT22;9318;48.644;9.456;2024-02-14T08:53:54;6.50;99.90
18384;DHT22;9318;48.644;9.456;2024-02-14T08:56:24;6.50;99.90
18384;DHT22;9318;48.644;9.456;2024-02-14T08:58:52;6.60;99.90
18384;DHT22;9318;48.644;9.456;2024-02-14T09:01:19;6.70;99.90
18384;DHT22;9318;48.644;9.456;2024-02-14T09:03:47;6.70;99.90
18384;DHT22;9318;48.644;9.456;2024-02-14T09:06:14;6.80;99.90
18384;DHT22;9318;48.644;9.456;2024-02-14T09:08:41;6.90;99.90
18384;DHT22;9318;48.644;9.456;2024-02-14T09:11:09;7.20;99.90
18384;DHT22;9318;48.644;9.456;2024-02-14T09:13:37;7.50;99.90
18384;DHT22;9318;48.644;9.456;2024-02-14T09:16:07;7.90;99.90
18384;DHT22;9318;48.644;9.456;2024-02-14T09:18:34;8.20;99.90
18384;DHT22;9318;48.644;9.456;2024-02-14T09:21:01;8.50;99.90
18384;DHT22;9318;48.644;9.456;2024-02-14T09:23:29;8.70;99.90
18384;DHT22;9318;48.644;9.456;2024-02-14T09:25:57;8.80;99.90
18384;DHT22;9318;48.644;9.456;2024-02-14T09:28:23;8.90;99.90
18384;DHT22;9318;48.644;9.456;2024-02-14T09:30:50;8.90;99.90
18384;DHT22;9318;48.644;9.456;2024-02-14T09:33:18;8.90;99.90
18384;DHT22;9318;48.644;9.456;2024-02-14T09:35:46;9.00;99.90
18384;DHT22;9318;48.644;9.456;2024-02-14T09:38:14;8.90;99.90
18384;DHT22;9318;48.644;9.456;2024-02-14T09:40:41;8.90;99.90
18384;DHT22;9318;48.644;9.456;2024-02-14T09:43:16;8.90;99.90
18384;DHT22;9318;48.644;9.456;2024-02-14T09:45:45;8.90;99.90
18384;DHT22;9318;48.644;9.456;2024-02-14T09:48:13;8.90;99.90
18384;DHT22;9318;48.644;9.456;2024-02-14T09:50:43;8.80;99.90
18384;DHT22;9318;48.644;9.456;2024-02-14T09:53:10;8.90;99.90
18384;DHT22;9318;48.644;9.456;2024-02-14T09:55:37;9.00;99.90
18384;DHT22;9318;48.644;9.456;2024-02-14T09:58:05;9.10;99.90
18384;DHT22;9318;48.644;9.456;2024-02-14T10:00:32;9.30;99.90
18384;DHT22;9318;48.644;9.456;2024-02-14T10:02:59;9.40;99.90
18384;DHT22;9318;48.644;9.456;2024-02-14T10:05:26;9.70;99.90
18384;DHT22;9318;48.644;9.456;2024-02-14T10:07:56;10.20;99.90
18384;DHT22;9318;48.644;9.456;2024-02-14T10:10:23;10.80;99.90
18384;DHT22;9318;48.644;9.456;2024-02-14T10:12:51;11.30;99.90
18384;DHT22;9318;48.644;9.456;2024-02-14T10:15:17;12.10;99.90
18384;DHT22;9318;48.644;9.456;2024-02-14T10:17:44;12.90;99.90
18384;DHT22;9318;48.644;9.456;2024-02-14T10:20:16;13.80;99.90
18384;DHT22;9318;48.644;9.456;2024-02-14T10:22:43;14.80;99.90
18384;DHT22;9318;48.644;9.456;2024-02-14T10:25:11;15.50;99.90
18384;DHT22;9318;48.644;9.456;2024-02-14T10:27:40;16.00;99.90
18384;DHT22;9318;48.644;9.456;2024-02-14T10:30:08;16.00;99.90
18384;DHT22;9318;48.644;9.456;2024-02-14T10:32:35;15.90;99.90
18384;DHT22;9318;48.644;9.456;2024-02-14T10:35:04;15.60;99.90
18384;DHT22;9318;48.644;9.456;2024-02-14T10:37:34;15.60;99.90
18384;DHT22;9318;48.644;9.456;2024-02-14T10:40:02;16.60;99.90
18384;DHT22;9318;48.644;9.456;2024-02-14T10:42:31;16.80;99.90
18384;DHT22;9318;48.644;9.456;2024-02-14T10:44:57;17.10;99.90
18384;DHT22;9318;48.644;9.456;2024-02-14T10:47:30;17.50;99.90
18384;DHT22;9318;48.644;9.456;2024-02-14T10:49:59;17.70;99.90
18384;DHT22;9318;48.644;9.456;2024-02-14T10:52:30;17.70;99.90
18384;DHT22;9318;48.644;9.456;2024-02-14T10:55:01;17.50;99.90
18384;DHT22;9318;48.644;9.456;2024-02-14T10:57:30;17.30;99.90
18384;DHT22;9318;48.644;9.456;2024-02-14T10:59:59;17.30;99.90
18384;DHT22;9318;48.644;9.456;2024-02-14T11:02:27;17.20;99.90
18384;DHT22;9318;48.644;9.456;2024-02-14T11:04:55;17.00;99.90
18384;DHT22;9318;48.644;9.456;2024-02-14T11:07:23;16.70;99.90
18384;DHT22;9318;48.644;9.456;2024-02-14T11:10:00;16.60;99.90
18384;DHT22;9318;48.644;9.456;2024-02-14T11:12:27;16.30;99.90
18384;DHT22;9318;48.644;9.456;2024-02-14T11:15:00;16.20;99.90
18384;DHT22;9318;48.644;9.456;2024-02-14T11:17:31;15.60;99.90
18384;DHT22;9318;48.644;9.456;2024-02-14T11:19:58;15.40;99.90
18384;DHT22;9318;48.644;9.456;2024-02-14T11:22:25;15.20;99.90
18384;DHT22;9318;48.644;9.456;2024-02-14T11:24:52;15.30;99.90
18384;DHT22;9318;48.644;9.456;2024-02-14T11:27:19;15.10;99.90
18384;DHT22;9318;48.644;9.456;2024-02-14T11:29:51;14.80;99.90
18384;DHT22;9318;48.644;9.456;2024-02-14T11:32:22;14.50;99.90
18384;DHT22;9318;48.644;9.456;2024-02-14T11:34:53;14.30;99.90
18384;DHT22;9318;48.644;9.456;2024-02-14T11:37:26;14.00;99.90
18384;DHT22;9318;48.644;9.456;2024-02-14T11:39:53;13.70;99.90
18384;DHT22;9318;48.644;9.456;2024-02-14T11:42:23;13.50;99.90
18384;DHT22;9318;48.644;9.456;2024-02-14T11:44:50;13.30;99.90
18384;DHT22;9318;48.644;9.456;2024-02-14T11:47:16;13.20;99.90
18384;DHT22;9318;48.644;9.456;2024-02-14T11:49:45;13.10;99.90
18384;DHT22;9318;48.644;9.456;2024-02-14T11:52:12;13.00;99.90
18384;DHT22;9318;48.644;9.456;2024-02-14T11:54:39;13.00;99.90
18384;DHT22;9318;48.644;9.456;2024-02-14T11:57:06;13.00;99.90
18384;DHT22;9318;48.644;9.456;2024-02-14T11:59:34;12.90;99.90
18384;DHT22;9318;48.644;9.456;2024-02-14T12:02:00;12.80;99.90
18384;DHT22;9318;48.644;9.456;2024-02-14T12:04:28;12.80;99.90
18384;DHT22;9318;48.644;9.456;2024-02-14T12:06:56;12.80;99.90
18384;DHT22;9318;48.644;9.456;2024-02-14T12:09:23;12.80;99.90
18384;DHT22;9318;48.644;9.456;2024-02-14T12:11:50;12.70;99.90
18384;DHT22;9318;48.644;9.456;2024-02-14T12:14:17;12.70;99.90
18384;DHT22;9318;48.644;9.456;2024-02-14T12:16:50;12.70;99.90
18384;DHT22;9318;48.644;9.456;2024-02-14T12:19:17;12.70;99.90
18384;DHT22;9318;48.644;9.456;2024-02-14T12:21:44;12.70;99.90
18384;DHT22;9318;48.644;9.456;2024-02-14T12:24:14;12.60;99.90
18384;DHT22;9318;48.644;9.456;2024-02-14T12:26:42;12.60;99.90
18384;DHT22;9318;48.644;9.456;2024-02-14T12:29:12;12.60;99.90
18384;DHT22;9318;48.644;9.456;2024-02-14T12:31:39;12.60;99.90
18384;DHT22;9318;48.644;9.456;2024-02-14T12:34:10;12.60;99.90
18384;DHT22;9318;48.644;9.456;2024-02-14T12:36:37;12.60;99.90
18384;DHT22;9318;48.644;9.456;2024-02-14T12:39:04;12.60;99.90
18384;DHT22;9318;48.644;9.456;2024-02-14T12:41:33;12.60;99.90
18384;DHT22;9318;48.644;9.456;2024-02-14T12:44:01;12.70;99.90
18384;DHT22;9318;48.644;9.456;2024-02-14T12:46:27;12.60;99.90
18384;DHT22;9318;48.644;9.456;2024-02-14T12:48:55;12.60;99.90
18384;DHT22;9318;48.644;9.456;2024-02-14T12:51:22;12.70;99.90
18384;DHT22;9318;48.644;9.456;2024-02-14T12:53:53;12.90;99.90
18384;DHT22;9318;48.644;9.456;2024-02-14T12:56:20;13.20;99.90
18384;DHT22;9318;48.644;9.456;2024-02-14T12:58:49;13.40;99.90
18384;DHT22;9318;48.644;9.456;2024-02-14T13:01:15;13.60;99.90
18384;DHT22;9318;48.644;9.456;2024-02-14T13:03:43;13.80;99.90
18384;DHT22;9318;48.644;9.456;2024-02-14T13:06:10;13.90;99.90
18384;DHT22;9318;48.644;9.456;2024-02-14T13:08:37;14.00;99.90
18384;DHT22;9318;48.644;9.456;2024-02-14T13:11:05;14.10;99.90
18384;DHT22;9318;48.644;9.456;2024-02-14T13:13:34;14.30;99.90
18384;DHT22;9318;48.644;9.456;2024-02-14T13:16:03;14.40;99.90
18384;DHT22;9318;48.644;9.456;2024-02-14T13:18:31;14.60;99.90
18384;DHT22;9318;48.644;9.456;2024-02-14T13:20:58;14.90;99.90
18384;DHT22;9318;48.644;9.456;2024-02-14T13:23:26;15.00;99.90
18384;DHT22;9318;48.644;9.456;2024-02-14T13:25:53;15.10;99.90
18384;DHT22;9318;48.644;9.456;2024-02-14T13:28:20;15.20;99.90
18384;DHT22;9318;48.644;9.456;2024-02-14T13:30:47;15.30;99.90
18384;DHT22;9318;48.644;9.456;2024-02-14T13:33:15;15.20;99.90
18384;DHT22;9318;48.644;9.456;2024-02-14T13:35:41;15.00;99.90
18384;DHT22;9318;48.644;9.456;2024-02-14T13:38:09;15.00;99.90
18384;DHT22;9318;48.644;9.456;2024-02-14T13:40:36;15.00;99.90
18384;DHT22;9318;48.644;9.456;2024-02-14T13:43:03;15.00;99.90
18384;DHT22;9318;48.644;9.456;2024-02-14T13:45:40;15.00;99.90
18384;DHT22;9318;48.644;9.456;2024-02-14T13:48:08;15.00;99.90
18384;DHT22;9318;48.644;9.456;2024-02-14T13:50:36;15.00;99.90
18384;DHT22;9318;48.644;9.456;2024-02-14T13:53:03;15.00;99.90
18384;DHT22;9318;48.644;9.456;2024-02-14T13:55:30;15.00;99.90
18384;DHT22;9318;48.644;9.456;2024-02-14T13:57:57;14.90;99.90
18384;DHT22;9318;48.644;9.456;2024-02-14T14:00:24;14.90;99.90
18384;DHT22;9318;48.644;9.456;2024-02-14T14:02:51;14.80;99.90
18384;DHT22;9318;48.644;9.456;2024-02-14T14:05:17;14.70;99.90
18384;DHT22;9318;48.644;9.456;2024-02-14T14:07:47;14.70;99.90
18384;DHT22;9318;48.644;9.456;2024-02-14T14:10:14;14.60;99.90
18384;DHT22;9318;48.644;9.456;2024-02-14T14:12:42;14.60;99.90
18384;DHT22;9318;48.644;9.456;2024-02-14T14:15:09;14.60;99.90
18384;DHT22;9318;48.644;9.456;2024-02-14T14:17:36;14.50;99.90
18384;DHT22;9318;48.644;9.456;2024-02-14T14:20:03;14.50;99.90
18384;DHT22;9318;48.644;9.456;2024-02-14T14:22:30;14.40;99.90
18384;DHT22;9318;48.644;9.456;2024-02-14T14:24:58;14.40;99.90
18384;DHT22;9318;48.644;9.456;2024-02-14T14:27:25;14.30;99.90
18384;DHT22;9318;48.644;9.456;2024-02-14T14:29:52;14.30;99.90
18384;DHT22;9318;48.644;9.456;2024-02-14T14:32:19;14.20;99.90
18384;DHT22;9318;48.644;9.456;2024-02-14T14:34:46;14.10;99.90
18384;DHT22;9318;48.644;9.456;2024-02-14T14:37:12;14.10;99.90
18384;DHT22;9318;48.644;9.456;2024-02-14T14:39:39;14.10;99.90
18384;DHT22;9318;48.644;9.456;2024-02-14T14:42:08;14.10;99.90
18384;DHT22;9318;48.644;9.456;2024-02-14T14:44:35;14.00;99.90
18384;DHT22;9318;48.644;9.456;2024-02-14T14:47:02;14.00;99.90
18384;DHT22;9318;48.644;9.456;2024-02-14T14:49:30;13.90;99.90
18384;DHT22;9318;48.644;9.456;2024-02-14T14:51:57;13.90;99.90
18384;DHT22;9318;48.644;9.456;2024-02-14T14:54:23;13.80;99.90
18384;DHT22;9318;48.644;9.456;2024-02-14T14:56:53;13.80;99.90
18384;DHT22;9318;48.644;9.456;2024-02-14T14:59:22;13.70;99.90
18384;DHT22;9318;48.644;9.456;2024-02-14T15:01:49;13.70;99.90
18384;DHT22;9318;48.644;9.456;2024-02-14T15:04:16;13.70;99.90
18384;DHT22;9318;48.644;9.456;2024-02-14T15:06:43;13.70;99.90
18384;DHT22;9318;48.644;9.456;2024-02-14T15:09:09;13.60;99.90
18384;DHT22;9318;48.644;9.456;2024-02-14T15:11:36;13.60;99.90
18384;DHT22;9318;48.644;9.456;2024-02-14T15:14:03;13.50;99.90
18384;DHT22;9318;48.644;9.456;2024-02-14T15:16:33;13.50;99.90
18384;DHT22;9318;48.644;9.456;2024-02-14T15:19:00;13.50;99.90
18384;DHT22;9318;48.644;9.456;2024-02-14T15:21:27;13.50;99.90
18384;DHT22;9318;48.644;9.456;2024-02-14T15:23:53;13.50;99.90
18384;DHT22;9318;48.644;9.456;2024-02-14T15:26:20;13.40;99.90
18384;DHT22;9318;48.644;9.456;2024-02-14T15:28:50;13.40;99.90
18384;DHT22;9318;48.644;9.456;2024-02-14T15:31:24;13.40;99.90
18384;DHT22;9318;48.644;9.456;2024-02-14T15:34:10;13.40;99.90
18384;DHT22;9318;48.644;9.456;2024-02-14T15:36:36;13.30;99.90
18384;DHT22;9318;48.644;9.456;2024-02-14T15:39:03;13.30;99.90
18384;DHT22;9318;48.644;9.456;2024-02-14T15:41:31;13.30;99.90
18384;DHT22;9318;48.644;9.456;2024-02-14T15:43:58;13.20;99.90
18384;DHT22;9318;48.644;9.456;2024-02-14T15:46:25;13.20;99.90
18384;DHT22;9318;48.644;9.456;2024-02-14T15:48:51;13.20;99.90
18384;DHT22;9318;48.644;9.456;2024-02-14T15:51:20;13.20;99.90
18384;DHT22;9318;48.644;9.456;2024-02-14T15:53:49;13.20;99.90
18384;DHT22;9318;48.644;9.456;2024-02-14T15:56:15;13.20;99.90